Time;durP1;ratioP1;P1;durP2;ratioP2;P2;SDS_P1;SDS_P2;PMS_P1;PMS_P2;Temp;Humidity;BMP_temperature;BMP_pressure;BME280_temperature;BME280_humidity;BME280_pressure;Samples;Min_cycle;Max_cycle;Signal;HPM_P1;HPM_P2
2023/08/19 00:00:06;;;;;;;9.10;8.20;;;;;;;;;;6305621;22;20183;-91
2023/08/19 00:02:35;;;;;;;17.83;12.27;;;;;;;;;;6307229;22;20234;-90
2023/08/19 00:05:04;;;;;;;8.27;4.43;;;;;;;;;;6306921;22;20245;-91
2023/08/19 00:07:33;;;;;;;11.73;8.30;;;;;;;;;;6307837;22;20209;-91
2023/08/19 00:10:04;;;;;;;5.60;4.03;;;;;;;;;;6306514;22;20229;-91
2023/08/19 00:12:33;;;;;;;5.87;5.47;;;;;;;;;;6306968;22;20258;-90
2023/08/19 00:15:02;;;;;;;4.33;3.87;;;;;;;;;;6306601;22;20236;-90
2023/08/19 00:17:31;;;;;;;2.53;1.73;;;;;;;;;;6306448;22;20275;-90
2023/08/19 00:20:00;;;;;;;5.63;5.10;;;;;;;;;;6306924;22;20172;-91
2023/08/19 00:22:29;;;;;;;3.40;3.07;;;;;;;;;;6306386;22;20200;-90
2023/08/19 00:24:57;;;;;;;5.40;4.67;;;;;;;;;;6306269;22;20171;-90
2023/08/19 00:27:27;;;;;;;8.60;7.20;;;;;;;;;;6306132;22;20172;-91
2023/08/19 00:29:56;;;;;;;7.83;6.90;;;;;;;;;;6306934;22;20172;-91
2023/08/19 00:32:24;;;;;;;2.50;1.93;;;;;;;;;;6306565;22;20172;-90
2023/08/19 00:34:53;;;;;;;8.50;6.97;;;;;;;;;;6305967;22;20165;-85
2023/08/19 00:37:22;;;;;;;5.57;5.00;;;;;;;;;;6305778;22;20176;-85
2023/08/19 00:39:51;;;;;;;3.33;3.03;;;;;;;;;;6305487;22;20179;-85
2023/08/19 00:42:19;;;;;;;4.63;4.33;;;;;;;;;;6305635;22;20285;-85
2023/08/19 00:44:49;;;;;;;1.67;1.60;;;;;;;;;;6305226;22;20186;-85
2023/08/19 00:47:18;;;;;;;3.27;3.03;;;;;;;;;;6305582;22;20176;-85
2023/08/19 00:49:46;;;;;;;2.43;2.33;;;;;;;;;;6306133;22;20179;-85
2023/08/19 00:52:15;;;;;;;6.50;4.80;;;;;;;;;;6305604;22;20199;-84
2023/08/19 00:54:44;;;;;;;5.13;2.20;;;;;;;;;;6305411;22;20203;-85
2023/08/19 00:57:13;;;;;;;3.33;3.03;;;;;;;;;;6305773;22;20177;-85
2023/08/19 00:59:41;;;;;;;2.93;2.73;;;;;;;;;;6305894;22;20173;-85
2023/08/19 01:02:11;;;;;;;4.70;4.23;;;;;;;;;;6305232;22;20190;-85
2023/08/19 01:04:40;;;;;;;2.03;1.93;;;;;;;;;;6305814;22;20274;-85
2023/08/19 01:07:11;;;;;;;6.43;5.83;;;;;;;;;;6305591;22;20171;-85
2023/08/19 01:09:43;;;;;;;2.90;2.43;;;;;;;;;;6305055;22;20172;-85
2023/08/19 01:12:16;;;;;;;3.57;3.27;;;;;;;;;;6305444;22;20190;-85
2023/08/19 01:14:48;;;;;;;7.20;6.17;;;;;;;;;;6305473;22;20182;-85
2023/08/19 01:17:19;;;;;;;6.57;5.13;;;;;;;;;;6305735;22;20251;-85
2023/08/19 01:19:48;;;;;;;2.97;2.77;;;;;;;;;;6304562;22;20171;-85
2023/08/19 01:22:19;;;;;;;5.27;3.30;;;;;;;;;;6304980;22;20203;-86
2023/08/19 01:24:49;;;;;;;1.87;1.73;;;;;;;;;;6305364;22;20183;-85
2023/08/19 01:27:24;;;;;;;5.17;4.23;;;;;;;;;;6305374;22;20170;-84
2023/08/19 01:29:55;;;;;;;8.30;4.83;;;;;;;;;;6304685;22;20170;-85
2023/08/19 01:32:24;;;;;;;3.17;2.97;;;;;;;;;;6274255;22;20194;-85
2023/08/19 01:34:54;;;;;;;6.67;5.20;;;;;;;;;;6274392;22;20165;-85
2023/08/19 01:37:25;;;;;;;3.70;2.40;;;;;;;;;;6273884;22;20172;-91
2023/08/19 01:39:56;;;;;;;2.97;2.73;;;;;;;;;;6275425;22;20194;-90
2023/08/19 01:42:25;;;;;;;1.90;1.80;;;;;;;;;;6277630;22;20249;-90
2023/08/19 01:44:55;;;;;;;1.83;1.73;;;;;;;;;;6277791;22;20465;-91
2023/08/19 01:47:23;;;;;;;4.27;3.30;;;;;;;;;;6277077;22;20202;-91
2023/08/19 01:49:52;;;;;;;2.03;1.93;;;;;;;;;;6277810;22;20176;-91
2023/08/19 01:52:20;;;;;;;3.50;1.33;;;;;;;;;;6277174;22;20181;-90
2023/08/19 01:54:49;;;;;;;5.43;4.93;;;;;;;;;;6277675;22;20222;-90
2023/08/19 01:57:19;;;;;;;2.07;1.90;;;;;;;;;;6277781;22;20260;-91
2023/08/19 01:59:51;;;;;;;12.60;4.30;;;;;;;;;;6277748;22;20172;-90
2023/08/19 02:02:19;;;;;;;8.60;2.63;;;;;;;;;;6277174;22;20191;-90
2023/08/19 02:04:48;;;;;;;3.37;3.17;;;;;;;;;;6276861;22;20179;-91
2023/08/19 02:07:16;;;;;;;6.83;5.40;;;;;;;;;;6277483;22;20251;-91
2023/08/19 02:09:46;;;;;;;4.87;3.60;;;;;;;;;;6278215;22;20175;-91
2023/08/19 02:12:14;;;;;;;2.73;2.53;;;;;;;;;;6277209;22;20167;-91
2023/08/19 02:14:44;;;;;;;5.50;4.10;;;;;;;;;;6277723;22;20178;-91
2023/08/19 02:17:13;;;;;;;3.30;2.97;;;;;;;;;;6277716;22;20185;-91
2023/08/19 02:19:41;;;;;;;2.97;2.77;;;;;;;;;;6278065;22;20180;-92
2023/08/19 02:22:10;;;;;;;1.83;1.73;;;;;;;;;;6276293;22;20173;-90
2023/08/19 02:24:38;;;;;;;1.87;1.77;;;;;;;;;;6277282;22;20179;-88
2023/08/19 02:27:07;;;;;;;1.27;1.20;;;;;;;;;;6277026;22;20197;-85
2023/08/19 02:29:36;;;;;;;3.23;2.60;;;;;;;;;;6276334;22;20344;-85
2023/08/19 02:32:06;;;;;;;1.43;1.37;;;;;;;;;;6302679;22;20201;-85
2023/08/19 02:34:34;;;;;;;1.23;1.23;;;;;;;;;;6306911;22;20179;-85
2023/08/19 02:37:03;;;;;;;6.33;3.63;;;;;;;;;;6306497;22;20169;-85
2023/08/19 02:39:32;;;;;;;2.70;2.50;;;;;;;;;;6306521;22;20199;-86
2023/08/19 02:42:00;;;;;;;5.90;3.73;;;;;;;;;;6306513;22;20180;-85
2023/08/19 02:44:29;;;;;;;9.40;5.40;;;;;;;;;;6306707;22;20188;-85
2023/08/19 02:46:58;;;;;;;2.97;2.83;;;;;;;;;;6307091;22;20194;-86
2023/08/19 02:49:28;;;;;;;1.30;1.30;;;;;;;;;;6306689;22;20172;-85
2023/08/19 02:51:56;;;;;;;4.20;2.37;;;;;;;;;;6306300;22;20188;-84
2023/08/19 02:54:25;;;;;;;0.93;0.93;;;;;;;;;;6307154;22;20168;-85
2023/08/19 02:56:53;;;;;;;2.27;2.17;;;;;;;;;;6306544;22;20176;-85
2023/08/19 02:59:22;;;;;;;4.97;4.20;;;;;;;;;;6306617;22;20205;-85
2023/08/19 03:01:50;;;;;;;4.63;3.13;;;;;;;;;;6307065;22;20259;-86
2023/08/19 03:04:19;;;;;;;2.17;1.33;;;;;;;;;;6306772;22;20216;-86
2023/08/19 03:06:49;;;;;;;4.80;4.50;;;;;;;;;;6305881;22;20262;-85
2023/08/19 03:09:18;;;;;;;4.53;2.03;;;;;;;;;;6306860;22;20262;-85
2023/08/19 03:11:47;;;;;;;0.40;0.40;;;;;;;;;;6306959;22;20172;-85
2023/08/19 03:14:15;;;;;;;0.27;0.27;;;;;;;;;;6306408;22;20171;-86
2023/08/19 03:16:44;;;;;;;2.27;2.17;;;;;;;;;;6306659;22;20179;-85
2023/08/19 03:19:14;;;;;;;6.47;4.20;;;;;;;;;;6306331;22;20221;-86
2023/08/19 03:21:43;;;;;;;2.10;2.00;;;;;;;;;;6306628;22;20185;-86
2023/08/19 03:24:12;;;;;;;6.50;3.60;;;;;;;;;;6305740;22;20444;-85
2023/08/19 03:26:41;;;;;;;4.60;3.47;;;;;;;;;;6306760;22;20173;-86
2023/08/19 03:29:09;;;;;;;3.23;3.03;;;;;;;;;;6306687;22;20178;-85
2023/08/19 03:31:38;;;;;;;11.47;8.67;;;;;;;;;;6305996;22;20205;-84
2023/08/19 03:34:07;;;;;;;6.03;4.07;;;;;;;;;;6305875;22;20166;-85
2023/08/19 03:36:35;;;;;;;6.30;5.70;;;;;;;;;;6306946;22;20258;-85
2023/08/19 03:39:04;;;;;;;11.63;5.97;;;;;;;;;;6306727;22;20174;-84
2023/08/19 03:41:33;;;;;;;3.40;3.17;;;;;;;;;;6305445;22;20178;-85
2023/08/19 03:44:02;;;;;;;0.60;0.60;;;;;;;;;;6306115;22;20185;-85
2023/08/19 03:46:30;;;;;;;4.97;3.93;;;;;;;;;;6306450;22;20171;-85
2023/08/19 03:48:59;;;;;;;0.20;0.20;;;;;;;;;;6306220;22;20232;-84
2023/08/19 03:51:28;;;;;;;2.77;2.63;;;;;;;;;;6305684;22;20195;-85
2023/08/19 03:53:56;;;;;;;3.93;3.57;;;;;;;;;;6306307;22;20174;-86
2023/08/19 03:56:25;;;;;;;4.20;3.87;;;;;;;;;;6306351;22;20173;-85
2023/08/19 03:58:55;;;;;;;1.70;1.43;;;;;;;;;;6306368;22;20169;-85
2023/08/19 04:01:23;;;;;;;6.23;4.70;;;;;;;;;;6305557;22;20177;-85
2023/08/19 04:03:52;;;;;;;1.07;1.07;;;;;;;;;;6305418;22;20192;-85
2023/08/19 04:06:21;;;;;;;2.07;1.93;;;;;;;;;;6306187;22;20225;-85
2023/08/19 04:08:49;;;;;;;6.07;5.47;;;;;;;;;;6305516;22;20231;-85
2023/08/19 04:11:18;;;;;;;6.20;4.50;;;;;;;;;;6305989;22;20198;-85
2023/08/19 04:13:46;;;;;;;1.33;1.30;;;;;;;;;;6306133;22;20164;-85
2023/08/19 04:16:16;;;;;;;8.00;3.33;;;;;;;;;;6305872;22;20171;-85
2023/08/19 04:18:44;;;;;;;19.57;16.57;;;;;;;;;;6305667;22;20169;-86
2023/08/19 04:21:13;;;;;;;4.03;3.20;;;;;;;;;;6305859;22;20200;-85
2023/08/19 04:23:42;;;;;;;3.87;3.50;;;;;;;;;;6305671;22;20181;-85
2023/08/19 04:26:10;;;;;;;0.20;0.20;;;;;;;;;;6305993;22;20462;-85
2023/08/19 04:28:39;;;;;;;0.30;0.30;;;;;;;;;;6305723;22;20182;-85
2023/08/19 04:31:08;;;;;;;6.70;6.33;;;;;;;;;;6305643;22;20183;-85
2023/08/19 04:33:38;;;;;;;12.07;10.07;;;;;;;;;;6305392;22;20193;-85
2023/08/19 04:36:07;;;;;;;16.13;14.47;;;;;;;;;;6305438;22;20243;-85
2023/08/19 04:38:36;;;;;;;15.77;11.93;;;;;;;;;;6306470;22;20177;-85
2023/08/19 04:41:04;;;;;;;2.87;2.73;;;;;;;;;;6305415;22;20191;-85
2023/08/19 04:43:36;;;;;;;4.43;4.00;;;;;;;;;;6305594;22;20273;-90
2023/08/19 04:46:05;;;;;;;10.80;7.40;;;;;;;;;;6306757;22;20170;-91
2023/08/19 04:48:33;;;;;;;15.23;12.10;;;;;;;;;;6306747;22;20219;-90
2023/08/19 04:51:03;;;;;;;13.20;10.40;;;;;;;;;;6305947;22;20189;-91
2023/08/19 04:53:32;;;;;;;8.90;6.17;;;;;;;;;;6306548;22;20209;-91
2023/08/19 04:56:02;;;;;;;8.10;5.60;;;;;;;;;;6306837;22;20183;-90
2023/08/19 04:58:30;;;;;;;3.10;2.27;;;;;;;;;;6306521;22;20223;-90
2023/08/19 05:00:59;;;;;;;5.03;4.53;;;;;;;;;;6307058;22;20263;-90
2023/08/19 05:03:30;;;;;;;2.13;2.03;;;;;;;;;;6306813;22;20178;-91
2023/08/19 05:05:59;;;;;;;1.07;0.97;;;;;;;;;;6307476;22;20170;-90
2023/08/19 05:08:29;;;;;;;11.73;9.97;;;;;;;;;;6307134;22;20177;-90
2023/08/19 05:10:58;;;;;;;0.30;0.30;;;;;;;;;;6306589;22;20256;-91
2023/08/19 05:13:26;;;;;;;0.80;0.80;;;;;;;;;;6307160;22;20219;-90
2023/08/19 05:15:55;;;;;;;5.93;5.07;;;;;;;;;;6306710;22;20166;-91
2023/08/19 05:18:24;;;;;;;3.83;3.40;;;;;;;;;;6306963;22;20170;-91
2023/08/19 05:20:53;;;;;;;2.63;2.40;;;;;;;;;;6306310;22;20173;-91
2023/08/19 05:23:21;;;;;;;2.73;2.43;;;;;;;;;;6306397;22;20182;-91
2023/08/19 05:25:53;;;;;;;8.60;7.70;;;;;;;;;;6306793;22;20201;-91
2023/08/19 05:28:22;;;;;;;9.57;7.70;;;;;;;;;;6305292;22;20257;-91
2023/08/19 05:30:50;;;;;;;12.23;8.50;;;;;;;;;;6306084;22;20169;-91
2023/08/19 05:33:19;;;;;;;15.83;14.20;;;;;;;;;;6306771;22;20294;-91
2023/08/19 05:35:48;;;;;;;12.87;11.27;;;;;;;;;;6306301;22;20169;-90
2023/08/19 05:38:16;;;;;;;13.40;12.00;;;;;;;;;;6306335;22;20229;-91
2023/08/19 05:40:45;;;;;;;12.43;9.40;;;;;;;;;;6305602;22;20174;-91
2023/08/19 05:43:15;;;;;;;14.57;10.10;;;;;;;;;;6306534;22;20184;-91
2023/08/19 05:45:43;;;;;;;10.57;9.53;;;;;;;;;;6306274;22;20236;-91
2023/08/19 05:48:12;;;;;;;14.20;12.80;;;;;;;;;;6306352;22;20166;-90
2023/08/19 05:50:41;;;;;;;14.03;12.73;;;;;;;;;;6306145;22;20259;-90
2023/08/19 05:53:09;;;;;;;10.93;9.83;;;;;;;;;;6306432;22;20455;-90
2023/08/19 05:55:38;;;;;;;12.83;11.43;;;;;;;;;;6305776;22;20199;-90
2023/08/19 05:58:07;;;;;;;14.37;12.87;;;;;;;;;;6306011;22;20186;-89
2023/08/19 06:00:36;;;;;;;14.50;11.77;;;;;;;;;;6306609;22;20255;-91
2023/08/19 06:03:06;;;;;;;18.67;16.73;;;;;;;;;;6306325;22;20285;-91
2023/08/19 06:05:36;;;;;;;12.27;10.70;;;;;;;;;;6306267;22;20269;-90
2023/08/19 06:08:05;;;;;;;17.67;13.87;;;;;;;;;;6306862;22;20206;-90
2023/08/19 06:10:33;;;;;;;18.47;14.70;;;;;;;;;;6306042;22;20180;-85
2023/08/19 06:13:02;;;;;;;17.17;15.07;;;;;;;;;;6304537;22;20256;-85
2023/08/19 06:15:30;;;;;;;17.43;14.23;;;;;;;;;;6305348;22;20176;-85
2023/08/19 06:18:00;;;;;;;14.53;12.80;;;;;;;;;;6305165;22;20169;-85
2023/08/19 06:20:29;;;;;;;12.30;10.43;;;;;;;;;;6304478;22;20271;-85
2023/08/19 06:22:57;;;;;;;12.40;11.10;;;;;;;;;;6305184;22;20172;-85
2023/08/19 06:25:26;;;;;;;17.27;13.10;;;;;;;;;;6305503;22;20196;-85
2023/08/19 06:27:54;;;;;;;19.27;13.97;;;;;;;;;;6307175;22;20257;-86
2023/08/19 06:30:23;;;;;;;20.60;16.87;;;;;;;;;;6305991;22;20175;-85
2023/08/19 06:32:51;;;;;;;14.03;11.97;;;;;;;;;;6306583;22;20211;-85
2023/08/19 06:35:22;;;;;;;14.63;11.97;;;;;;;;;;6306860;22;20163;-86
2023/08/19 06:37:54;;;;;;;15.33;13.87;;;;;;;;;;6306431;22;20177;-86
2023/08/19 06:40:23;;;;;;;14.53;13.00;;;;;;;;;;6306987;22;20263;-85
2023/08/19 06:42:52;;;;;;;16.07;14.43;;;;;;;;;;6306933;22;20179;-85
2023/08/19 06:45:22;;;;;;;12.87;11.40;;;;;;;;;;6306552;22;20190;-85
2023/08/19 06:47:52;;;;;;;16.20;14.60;;;;;;;;;;6306454;22;20430;-85
2023/08/19 06:50:22;;;;;;;14.43;13.03;;;;;;;;;;6306407;22;20175;-85
2023/08/19 06:52:51;;;;;;;17.00;15.40;;;;;;;;;;6306456;22;20190;-86
2023/08/19 06:55:20;;;;;;;17.57;11.40;;;;;;;;;;6306366;22;20182;-86
2023/08/19 06:57:54;;;;;;;14.87;13.30;;;;;;;;;;6305885;22;20171;-85
2023/08/19 07:00:24;;;;;;;1.37;1.37;;;;;;;;;;6306387;22;20168;-85
2023/08/19 07:02:56;;;;;;;21.93;14.77;;;;;;;;;;6306461;22;20221;-86
2023/08/19 07:05:27;;;;;;;14.80;13.30;;;;;;;;;;6306025;22;20188;-84
2023/08/19 07:07:58;;;;;;;15.80;6.47;;;;;;;;;;6306348;22;20186;-83
2023/08/19 07:10:27;;;;;;;10.93;9.63;;;;;;;;;;6306173;22;20165;-83
2023/08/19 07:12:57;;;;;;;15.00;13.40;;;;;;;;;;6306504;22;20226;-83
2023/08/19 07:15:26;;;;;;;7.43;5.03;;;;;;;;;;6305919;22;20191;-83
2023/08/19 07:17:57;;;;;;;16.67;13.03;;;;;;;;;;6306899;22;20184;-84
2023/08/19 07:20:27;;;;;;;12.10;10.03;;;;;;;;;;6306303;22;20179;-83
2023/08/19 07:22:57;;;;;;;11.00;9.27;;;;;;;;;;6306267;22;20173;-83
2023/08/19 07:25:25;;;;;;;19.83;14.07;;;;;;;;;;6305719;22;20183;-83
2023/08/19 07:27:55;;;;;;;19.13;15.37;;;;;;;;;;6306755;22;20187;-88
2023/08/19 07:30:24;;;;;;;14.57;12.70;;;;;;;;;;6306552;22;20176;-86
2023/08/19 07:32:53;;;;;;;15.13;12.23;;;;;;;;;;6305237;22;20219;-85
2023/08/19 07:35:21;;;;;;;14.17;11.03;;;;;;;;;;6306317;22;20222;-82
2023/08/19 07:37:51;;;;;;;15.30;12.77;;;;;;;;;;6306063;22;20170;-82
2023/08/19 07:40:19;;;;;;;12.27;10.73;;;;;;;;;;6305129;22;20179;-83
2023/08/19 07:42:48;;;;;;;12.60;9.10;;;;;;;;;;6306529;22;20176;-83
2023/08/19 07:45:16;;;;;;;13.30;11.17;;;;;;;;;;6305938;22;20198;-84
2023/08/19 07:47:45;;;;;;;16.07;14.43;;;;;;;;;;6305937;22;20213;-83
2023/08/19 07:50:13;;;;;;;7.57;6.80;;;;;;;;;;6305965;22;20201;-82
2023/08/19 07:52:42;;;;;;;8.60;6.70;;;;;;;;;;6305577;22;20206;-83
2023/08/19 07:55:12;;;;;;;9.60;7.20;;;;;;;;;;6306655;22;20179;-80
2023/08/19 07:57:40;;;;;;;3.97;3.50;;;;;;;;;;6305817;22;20175;-87
2023/08/19 08:00:09;;;;;;;10.57;9.47;;;;;;;;;;6305786;22;20172;-87
2023/08/19 08:02:38;;;;;;;32.57;4.00;;;;;;;;;;6306025;22;20183;-82
2023/08/19 08:05:07;;;;;;;9.37;7.03;;;;;;;;;;6306328;22;20176;-82
2023/08/19 08:07:35;;;;;;;12.83;10.53;;;;;;;;;;6305491;22;20344;-82
2023/08/19 08:10:04;;;;;;;14.07;7.77;;;;;;;;;;6306015;22;20171;-82
2023/08/19 08:12:34;;;;;;;8.03;7.00;;;;;;;;;;6305546;22;20176;-82
2023/08/19 08:15:03;;;;;;;5.00;2.80;;;;;;;;;;6305771;22;20184;-85
2023/08/19 08:17:32;;;;;;;4.73;2.57;;;;;;;;;;6305241;22;20222;-85
2023/08/19 08:20:01;;;;;;;9.63;4.03;;;;;;;;;;6305616;22;20178;-85
2023/08/19 08:22:29;;;;;;;5.87;5.17;;;;;;;;;;6305537;22;20207;-84
2023/08/19 08:24:58;;;;;;;9.10;6.47;;;;;;;;;;6305403;22;20186;-85
2023/08/19 08:27:26;;;;;;;6.37;3.47;;;;;;;;;;6305326;22;20230;-85
2023/08/19 08:29:56;;;;;;;7.57;4.27;;;;;;;;;;6305689;22;20165;-90
2023/08/19 08:32:25;;;;;;;6.67;5.47;;;;;;;;;;6306595;22;20235;-92
2023/08/19 08:34:54;;;;;;;8.37;7.33;;;;;;;;;;6305446;22;20176;-90
2023/08/19 08:37:22;;;;;;;6.40;3.20;;;;;;;;;;6305727;22;20211;-90
2023/08/19 08:39:50;;;;;;;8.37;7.53;;;;;;;;;;6305538;22;20168;-88
2023/08/19 08:42:19;;;;;;;18.87;9.87;;;;;;;;;;6306004;22;20169;-90
2023/08/19 08:44:50;;;;;;;19.93;14.27;;;;;;;;;;6306131;22;20261;-90
2023/08/19 08:47:22;;;;;;;21.97;14.63;;;;;;;;;;6306627;22;20192;-90
2023/08/19 08:49:52;;;;;;;10.00;6.77;;;;;;;;;;6305755;22;20169;-85
2023/08/19 08:52:22;;;;;;;9.23;7.03;;;;;;;;;;6304265;22;20224;-90
2023/08/19 08:54:52;;;;;;;11.83;10.53;;;;;;;;;;6305685;22;20168;-89
2023/08/19 08:57:20;;;;;;;6.93;5.90;;;;;;;;;;6306169;22;20169;-85
2023/08/19 08:59:49;;;;;;;5.43;4.43;;;;;;;;;;6305570;22;20180;-85
2023/08/19 09:02:18;;;;;;;7.07;3.57;;;;;;;;;;6305202;22;20168;-85
2023/08/19 09:04:48;;;;;;;6.33;3.97;;;;;;;;;;6306177;22;20173;-85
2023/08/19 09:07:19;;;;;;;7.10;5.80;;;;;;;;;;6305360;22;20224;-85
2023/08/19 09:09:48;;;;;;;5.70;4.80;;;;;;;;;;6305383;22;20256;-85
2023/08/19 09:12:17;;;;;;;6.83;5.43;;;;;;;;;;6304805;22;20182;-85
2023/08/19 09:14:45;;;;;;;2.53;1.93;;;;;;;;;;6305267;22;20182;-86
2023/08/19 09:17:15;;;;;;;9.63;5.90;;;;;;;;;;6305513;22;20172;-85
2023/08/19 09:19:43;;;;;;;5.40;3.20;;;;;;;;;;6305197;22;20168;-85
2023/08/19 09:22:20;;;;;;;7.07;6.37;;;;;;;;;;6305169;22;20195;-85
2023/08/19 09:24:50;;;;;;;5.70;5.20;;;;;;;;;;6305663;22;20185;-86
2023/08/19 09:27:25;;;;;;;6.43;4.47;;;;;;;;;;6304757;22;20192;-87
2023/08/19 09:29:54;;;;;;;6.27;3.57;;;;;;;;;;6305052;22;20180;-85
2023/08/19 09:32:29;;;;;;;6.70;4.13;;;;;;;;;;6305139;22;20239;-86
2023/08/19 09:35:03;;;;;;;2.53;1.90;;;;;;;;;;6304760;22;20224;-85
2023/08/19 09:37:33;;;;;;;3.43;2.50;;;;;;;;;;6304469;22;20160;-85
2023/08/19 09:40:07;;;;;;;6.57;3.33;;;;;;;;;;6305118;22;20170;-85
2023/08/19 09:42:36;;;;;;;3.50;3.10;;;;;;;;;;6304682;22;20164;-84
2023/08/19 09:45:05;;;;;;;6.00;3.13;;;;;;;;;;6305480;22;20183;-83
2023/08/19 09:47:46;;;;;;;2.90;2.43;;;;;;;;;;6305473;22;20199;-82
2023/08/19 09:50:14;;;;;;;4.17;2.87;;;;;;;;;;6306698;22;20210;-82
2023/08/19 09:52:53;;;;;;;5.10;2.67;;;;;;;;;;6306438;22;20223;-85
2023/08/19 09:55:25;;;;;;;4.67;2.53;;;;;;;;;;6306168;22;20168;-86
2023/08/19 09:57:54;;;;;;;7.17;3.13;;;;;;;;;;6306343;22;20172;-86
2023/08/19 10:00:23;;;;;;;3.80;2.37;;;;;;;;;;6306021;22;20258;-83
2023/08/19 10:02:51;;;;;;;4.03;2.77;;;;;;;;;;6307668;22;20176;-83
2023/08/19 10:05:20;;;;;;;2.93;2.57;;;;;;;;;;6308051;22;20171;-83
2023/08/19 10:07:54;;;;;;;3.17;2.17;;;;;;;;;;6308837;22;20194;-82
2023/08/19 10:10:23;;;;;;;2.70;2.00;;;;;;;;;;6308584;22;20180;-82
2023/08/19 10:12:52;;;;;;;1.57;1.47;;;;;;;;;;6307774;22;20253;-82
2023/08/19 10:15:22;;;;;;;4.67;2.83;;;;;;;;;;6308213;22;20182;-82
2023/08/19 10:17:51;;;;;;;8.17;4.30;;;;;;;;;;6308000;22;20173;-91
2023/08/19 10:20:22;;;;;;;3.03;2.63;;;;;;;;;;6306531;22;20250;-89
2023/08/19 10:22:54;;;;;;;7.03;3.40;;;;;;;;;;6306691;22;20267;-89
2023/08/19 10:25:23;;;;;;;5.27;3.43;;;;;;;;;;6307314;22;20168;-90
2023/08/19 10:27:52;;;;;;;7.53;4.83;;;;;;;;;;6307035;22;20196;-90
2023/08/19 10:30:31;;;;;;;3.97;2.30;;;;;;;;;;6306489;22;20195;-90
2023/08/19 10:33:07;;;;;;;6.07;3.70;;;;;;;;;;6306635;22;20225;-90
2023/08/19 10:35:55;;;;;;;8.67;4.17;;;;;;;;;;6307058;22;20168;-89
2023/08/19 10:38:24;;;;;;;4.50;2.40;;;;;;;;;;6306449;22;20167;-85
2023/08/19 10:41:03;;;;;;;7.10;5.47;;;;;;;;;;6306382;22;20186;-89
2023/08/19 10:43:55;;;;;;;4.67;3.03;;;;;;;;;;6306949;22;20262;-90
2023/08/19 10:46:27;;;;;;;4.63;2.93;;;;;;;;;;6306270;22;20167;-90
2023/08/19 10:48:56;;;;;;;5.27;3.97;;;;;;;;;;6306390;22;20202;-85
2023/08/19 10:51:40;;;;;;;9.53;7.07;;;;;;;;;;6306439;22;20210;-85
2023/08/19 10:54:10;;;;;;;2.87;2.63;;;;;;;;;;6305914;22;20179;-85
2023/08/19 10:56:44;;;;;;;5.87;3.67;;;;;;;;;;6305623;22;20178;-85
2023/08/19 10:59:13;;;;;;;6.50;3.87;;;;;;;;;;6306818;22;20169;-85
2023/08/19 11:01:42;;;;;;;9.80;4.97;;;;;;;;;;6306509;22;20180;-85
2023/08/19 11:04:10;;;;;;;8.43;4.07;;;;;;;;;;6306622;22;20176;-90
2023/08/19 11:06:39;;;;;;;5.27;3.57;;;;;;;;;;6306548;22;20281;-86
2023/08/19 11:09:09;;;;;;;7.67;4.83;;;;;;;;;;6306423;22;20171;-86
2023/08/19 11:11:38;;;;;;;3.83;3.33;;;;;;;;;;6306313;22;20172;-85
2023/08/19 11:14:06;;;;;;;5.93;4.83;;;;;;;;;;6305970;22;20177;-85
2023/08/19 11:16:35;;;;;;;4.97;3.97;;;;;;;;;;6306677;22;20178;-86
2023/08/19 11:19:03;;;;;;;9.53;6.73;;;;;;;;;;6306324;22;20166;-85
2023/08/19 11:21:32;;;;;;;5.13;3.27;;;;;;;;;;6306270;22;20179;-84
2023/08/19 11:24:00;;;;;;;11.50;5.20;;;;;;;;;;6305957;22;20173;-85
2023/08/19 11:26:30;;;;;;;5.87;3.43;;;;;;;;;;6306634;22;20207;-85
2023/08/19 11:28:58;;;;;;;6.23;4.53;;;;;;;;;;6306469;22;20194;-84
2023/08/19 11:31:29;;;;;;;9.13;5.07;;;;;;;;;;6305200;22;20204;-85
2023/08/19 11:33:58;;;;;;;7.27;4.60;;;;;;;;;;6306543;22;20180;-84
2023/08/19 11:36:26;;;;;;;6.73;5.20;;;;;;;;;;6306246;22;20364;-84
2023/08/19 11:38:56;;;;;;;6.20;4.10;;;;;;;;;;6306420;22;20227;-84
2023/08/19 11:41:25;;;;;;;3.20;2.03;;;;;;;;;;6305505;22;20179;-84
2023/08/19 11:43:55;;;;;;;13.27;5.73;;;;;;;;;;6306904;22;20176;-85
2023/08/19 11:46:23;;;;;;;6.17;2.83;;;;;;;;;;6305798;22;20168;-85
2023/08/19 11:48:52;;;;;;;4.33;3.37;;;;;;;;;;6305554;22;20231;-85
2023/08/19 11:51:22;;;;;;;7.97;5.00;;;;;;;;;;6305637;22;20191;-85
2023/08/19 11:53:54;;;;;;;15.47;6.70;;;;;;;;;;6306201;22;20234;-84
2023/08/19 11:56:22;;;;;;;5.47;4.10;;;;;;;;;;6306257;22;20175;-84
2023/08/19 11:58:55;;;;;;;3.27;2.80;;;;;;;;;;6305945;22;20171;-84
2023/08/19 12:01:24;;;;;;;9.40;4.03;;;;;;;;;;6306017;22;20186;-84
2023/08/19 12:03:54;;;;;;;2.87;2.57;;;;;;;;;;6305866;22;20167;-85
2023/08/19 12:06:23;;;;;;;9.20;7.93;;;;;;;;;;6305790;22;20225;-85
2023/08/19 12:08:52;;;;;;;6.40;5.77;;;;;;;;;;6305387;22;20187;-85
2023/08/19 12:11:25;;;;;;;7.43;4.73;;;;;;;;;;6305471;22;20178;-85
2023/08/19 12:13:54;;;;;;;4.30;2.90;;;;;;;;;;6306139;22;20276;-84
2023/08/19 12:16:23;;;;;;;4.10;2.93;;;;;;;;;;6305253;22;20175;-85
2023/08/19 12:18:52;;;;;;;3.77;3.20;;;;;;;;;;6306183;22;20184;-85
2023/08/19 12:21:20;;;;;;;10.43;3.10;;;;;;;;;;6305699;22;20189;-85
2023/08/19 12:23:48;;;;;;;6.97;4.53;;;;;;;;;;6305196;22;20179;-85
2023/08/19 12:26:17;;;;;;;6.17;3.83;;;;;;;;;;6305474;22;20183;-85
2023/08/19 12:28:45;;;;;;;6.90;2.80;;;;;;;;;;6305595;22;20190;-85
2023/08/19 12:31:15;;;;;;;3.53;2.97;;;;;;;;;;6305681;22;20178;-85
2023/08/19 12:33:45;;;;;;;3.97;2.57;;;;;;;;;;6305049;22;20201;-84
2023/08/19 12:36:14;;;;;;;5.30;3.20;;;;;;;;;;6305667;22;20182;-84
2023/08/19 12:38:47;;;;;;;5.20;3.27;;;;;;;;;;6305941;22;20195;-85
2023/08/19 12:41:15;;;;;;;6.80;3.60;;;;;;;;;;6304972;22;20176;-84
2023/08/19 12:43:44;;;;;;;5.40;2.20;;;;;;;;;;6304968;22;20169;-84
2023/08/19 12:46:12;;;;;;;5.10;2.33;;;;;;;;;;6305585;22;20181;-84
2023/08/19 12:48:42;;;;;;;4.03;2.10;;;;;;;;;;6305660;22;20189;-85
2023/08/19 12:51:11;;;;;;;9.57;2.37;;;;;;;;;;6304734;22;20192;-86
2023/08/19 12:53:42;;;;;;;2.93;2.00;;;;;;;;;;6305272;22;20181;-84
2023/08/19 12:56:11;;;;;;;3.97;1.73;;;;;;;;;;6305188;22;20175;-85
2023/08/19 12:58:39;;;;;;;6.23;3.10;;;;;;;;;;6305528;22;20173;-84
2023/08/19 13:01:08;;;;;;;3.73;2.13;;;;;;;;;;6304952;22;20180;-84
2023/08/19 13:03:36;;;;;;;0.93;0.90;;;;;;;;;;6305647;22;20180;-84
2023/08/19 13:06:07;;;;;;;5.70;2.07;;;;;;;;;;6305456;22;20245;-84
2023/08/19 13:08:35;;;;;;;3.50;1.43;;;;;;;;;;6304638;22;20211;-82
2023/08/19 13:11:04;;;;;;;5.00;2.30;;;;;;;;;;6304962;22;20191;-82
2023/08/19 13:13:32;;;;;;;8.43;2.27;;;;;;;;;;6305061;22;20226;-82
2023/08/19 13:16:00;;;;;;;3.67;1.53;;;;;;;;;;6306055;22;20175;-81
2023/08/19 13:18:29;;;;;;;3.97;2.10;;;;;;;;;;6305062;22;20241;-83
2023/08/19 13:20:57;;;;;;;3.90;1.67;;;;;;;;;;6305293;22;20238;-82
2023/08/19 13:23:27;;;;;;;6.73;2.03;;;;;;;;;;6305083;22;20192;-82
2023/08/19 13:25:56;;;;;;;3.47;2.00;;;;;;;;;;6305238;22;20169;-83
2023/08/19 13:28:25;;;;;;;2.37;2.17;;;;;;;;;;6305153;22;20189;-82
2023/08/19 13:30:55;;;;;;;11.30;2.70;;;;;;;;;;6305324;22;20184;-87
2023/08/19 13:33:24;;;;;;;5.37;1.40;;;;;;;;;;6305304;22;20281;-87
2023/08/19 13:35:53;;;;;;;11.03;1.67;;;;;;;;;;6306302;22;20175;-87
2023/08/19 13:38:22;;;;;;;5.43;1.93;;;;;;;;;;6307597;22;20199;-87
2023/08/19 13:40:51;;;;;;;2.73;1.63;;;;;;;;;;6307465;22;20180;-87
2023/08/19 13:43:20;;;;;;;6.60;2.73;;;;;;;;;;6307690;22;20172;-83
2023/08/19 13:45:48;;;;;;;6.97;2.27;;;;;;;;;;6306948;22;20173;-85
2023/08/19 13:48:17;;;;;;;2.50;1.50;;;;;;;;;;6307737;22;20247;-85
2023/08/19 13:50:46;;;;;;;4.67;1.70;;;;;;;;;;6307396;22;20198;-86
2023/08/19 13:53:15;;;;;;;5.23;1.57;;;;;;;;;;6307481;22;20229;-85
2023/08/19 13:55:44;;;;;;;2.10;1.20;;;;;;;;;;6307411;22;20265;-85
2023/08/19 13:58:14;;;;;;;11.47;3.10;;;;;;;;;;6307771;22;20214;-86
2023/08/19 14:00:43;;;;;;;4.13;2.10;;;;;;;;;;6306986;22;20239;-85
2023/08/19 14:03:11;;;;;;;1.90;1.10;;;;;;;;;;6306689;22;20252;-90
2023/08/19 14:05:40;;;;;;;8.93;3.10;;;;;;;;;;6308378;22;20206;-91
2023/08/19 14:08:09;;;;;;;7.80;1.60;;;;;;;;;;6307592;22;20178;-92
2023/08/19 14:10:38;;;;;;;3.57;1.37;;;;;;;;;;6306973;22;20194;-92
2023/08/19 14:13:07;;;;;;;2.20;0.97;;;;;;;;;;6306950;22;20168;-93
2023/08/19 14:15:36;;;;;;;2.80;2.27;;;;;;;;;;6307638;22;20171;-93
2023/08/19 14:18:05;;;;;;;5.63;2.17;;;;;;;;;;6307622;22;20193;-93
2023/08/19 14:20:34;;;;;;;7.37;1.77;;;;;;;;;;6306790;22;20174;-92
2023/08/19 14:23:03;;;;;;;4.87;1.30;;;;;;;;;;6307260;22;20171;-93
2023/08/19 14:25:31;;;;;;;4.67;1.60;;;;;;;;;;6307411;22;20222;-91
2023/08/19 14:28:00;;;;;;;5.37;1.47;;;;;;;;;;6307537;22;20166;-92
2023/08/19 14:30:28;;;;;;;8.73;2.70;;;;;;;;;;6307371;22;20198;-93
2023/08/19 14:32:58;;;;;;;3.50;1.30;;;;;;;;;;6307619;22;20202;-92
2023/08/19 14:35:27;;;;;;;4.30;2.07;;;;;;;;;;6307690;22;20234;-94
2023/08/19 14:37:55;;;;;;;3.47;2.00;;;;;;;;;;6306998;22;20234;-88
2023/08/19 14:40:24;;;;;;;7.37;3.23;;;;;;;;;;6306810;22;20163;-88
2023/08/19 14:42:54;;;;;;;8.43;2.33;;;;;;;;;;6307485;22;20178;-94
2023/08/19 14:45:23;;;;;;;9.83;2.33;;;;;;;;;;6307228;22;20171;-92
2023/08/19 14:47:51;;;;;;;7.00;1.47;;;;;;;;;;6306638;22;20179;-93
2023/08/19 14:50:23;;;;;;;6.50;1.87;;;;;;;;;;6307172;22;20275;-91